Погода Папежена 2 недели

Лодзинское воеводство, Польша

24 мая-06 июня
  • 24мая
    Сегодня
    +12°
    +25°
    Небольшая облачность
    ВремяПогодаТемператураВлажностьДавлениеВетер, м/сВероятность осадков
    02:00Практически безоблачно+14°C96 %745 мм0.8 м/с31 %
    05:00Облачно с прояснениями+13°C100 %746 мм0.7 м/с19 %
    08:00Облачно с прояснениями+17°C87 %746 мм1.0 м/с4 %
    11:00Практически безоблачно+22°C71 %747 мм2.5 м/с17 %
    14:00Небольшая облачность+24°C56 %746 мм3.5 м/с22 %
    17:00Небольшая облачность, возможен дождь с грозой+24°C47 %745 мм4.0 м/с27 %
    20:00Ясно и безоблачно+20°C84 %746 мм2.0 м/с32 %
    23:00Ясно и безоблачно+16°C93 %746 мм1.2 м/с2 %
  • 25мая
    Суббота
    +12°
    +23°
    Облачно с прояснениями
    ВремяПогодаТемператураВлажностьДавлениеВетер, м/сВероятность осадков
    02:00Ясно и безоблачно+14°C95 %746 мм1.1 м/с2 %
    05:00Практически безоблачно+13°C95 %746 мм1.2 м/с2 %
    08:00Ясно и безоблачно+18°C84 %746 мм1.3 м/с2 %
    11:00Небольшая облачность+22°C60 %747 мм1.9 м/с5 %
    14:00Облачно с прояснениями+23°C54 %746 мм2.5 м/с21 %
    17:00Облачно с прояснениями+24°C50 %745 мм2.6 м/с47 %
    20:00Облачно с прояснениями+20°C87 %746 мм1.9 м/с49 %
    23:00Ясно и безоблачно+16°C95 %746 мм1.2 м/с9 %
  • 26мая
    Воскресенье
    +12°
    +25°
    Ясно и безоблачно
    ВремяПогодаТемператураВлажностьДавлениеВетер, м/сВероятность осадков
    02:00Практически безоблачно+13°C97 %746 мм1.1 м/с2 %
    05:00Небольшая облачность+12°C97 %746 мм0.9 м/с2 %
    08:00Ясно и безоблачно+18°C89 %747 мм1.1 м/с2 %
    11:00Небольшая облачность+24°C60 %747 мм1.9 м/с5 %
    14:00Ясно и безоблачно+25°C45 %747 мм2.4 м/с13 %
    17:00Небольшая облачность+24°C51 %746 мм2.9 м/с36 %
    20:00Практически безоблачно+21°C71 %747 мм2.8 м/с21 %
    23:00Ясно и безоблачно+17°C76 %747 мм1.4 м/с2 %
  • 27мая
    Понедельник
    +11°
    +26°
    Ясно и безоблачно
    ВремяПогодаТемператураВлажностьДавлениеВетер, м/сВероятность осадков
    02:00Ясно и безоблачно+14°C92 %747 мм1.6 м/с2 %
    05:00Практически безоблачно+13°C94 %747 мм1.2 м/с2 %
    08:00Практически безоблачно+18°C75 %747 мм1.8 м/с2 %
    11:00Ясно и безоблачно+24°C42 %747 мм3.1 м/с15 %
    14:00Ясно и безоблачно+26°C30 %746 мм3.9 м/с24 %
    17:00Ясно и безоблачно+26°C31 %745 мм4.3 м/с18 %
    20:00Ясно и безоблачно+22°C51 %745 мм2.9 м/с4 %
    23:00Ясно и безоблачно+16°C52 %745 мм2.0 м/с2 %
  • 28мая
    Вторник
    +11°
    +24°
    Пасмурно, сплошная облачность
    ВремяПогодаТемператураВлажностьДавлениеВетер, м/сВероятность осадков
    02:00Ясно и безоблачно+13°C58 %745 мм1.9 м/с2 %
    05:00Ясно и безоблачно+12°C65 %745 мм1.4 м/с2 %
    08:00Ясно и безоблачно+18°C57 %745 мм3.1 м/с2 %
    11:00Ясно и безоблачно+23°C34 %745 мм4.3 м/с2 %
    14:00Пасмурно, сплошная облачность+24°C31 %745 мм4.4 м/с4 %
    17:00Облачно с прояснениями+25°C35 %744 мм4.3 м/с3 %
    20:00Небольшая облачность+21°C61 %744 мм2.3 м/с3 %
    23:00Небольшая облачность+17°C57 %744 мм1.3 м/с2 %
Мы используем cookies
Соглашаюсь